GLD1705 SNTD-SNVB
Flight info
| Callsign | GLD1705 |
|---|---|
| Flight time | N/A |
| Altitude | 9500 |
| Route | DCT 1607S04524W DCT 1512S04315W DCT 1444S04210W DCT 1346S04003W DCT |
| Aircraft | PA24/L-SDFGIRY/S |
Departure
| Time | 2026-04-13 20:25 |
|---|---|
| Airport | Fazenda Mamoneira Airport (SNTD) |
Arrival
| Time | N/A |
|---|---|
| Airport | Valença Airport (SNVB) |
| Time | Latitude | Longitude | Altitude | Speed | Heading |
|---|---|---|---|---|---|
| 2026-04-13 20:22 | -16.58398 | -46.49689 | 1860 ft | 0 kts | 103° |
| 2026-04-13 20:24 | -16.58432 | -46.49650 | 1862 ft | 21 kts | 148° |
| 2026-04-13 20:24 | -16.58549 | -46.49835 | 1866 ft | 61 kts | 253° |
| 2026-04-13 20:24 | -16.58688 | -46.50397 | 1882 ft | 94 kts | 251° |
| 2026-04-13 20:25 | -16.58834 | -46.51106 | 1985 ft | 104 kts | 271° |
| 2026-04-13 20:25 | -16.58422 | -46.51699 | 2194 ft | 104 kts | 334° |
| 2026-04-13 20:25 | -16.57731 | -46.51671 | 2400 ft | 104 kts | 26° |
| 2026-04-13 20:25 | -16.57284 | -46.51090 | 2579 ft | 104 kts | 75° |
| 2026-04-13 20:26 | -16.57187 | -46.50344 | 2772 ft | 104 kts | 84° |
| 2026-04-13 20:26 | -16.57192 | -46.49712 | 3239 ft | 61 kts | 92° |
| 2026-04-13 20:26 | -16.57267 | -46.49158 | 3272 ft | 85 kts | 98° |
| 2026-04-13 20:26 | -16.57266 | -46.48384 | 3198 ft | 114 kts | 89° |
| 2026-04-13 20:27 | -16.57262 | -46.47679 | 3608 ft | 89 kts | 85° |
| 2026-04-13 20:27 | -16.57185 | -46.46982 | 3653 ft | 106 kts | 81° |
| 2026-04-13 20:27 | -16.57044 | -46.46221 | 3839 ft | 104 kts | 77° |
| 2026-04-13 20:27 | -16.56845 | -46.45507 | 4027 ft | 105 kts | 70° |
| 2026-04-13 20:28 | -16.56557 | -46.44792 | 4206 ft | 106 kts | 64° |
| 2026-04-13 20:28 | -16.56191 | -46.44139 | 4400 ft | 106 kts | 57° |
| 2026-04-13 20:28 | -16.55755 | -46.43507 | 4571 ft | 107 kts | 54° |
| 2026-04-13 20:28 | -16.55306 | -46.42899 | 4770 ft | 106 kts | 53° |
| 2026-04-13 20:29 | -16.54888 | -46.42359 | 5121 ft | 85 kts | 51° |
| 2026-04-13 20:29 | -16.54475 | -46.41860 | 5220 ft | 94 kts | 51° |
| 2026-04-13 20:29 | -16.54093 | -46.41354 | 5438 ft | 87 kts | 55° |
| 2026-04-13 20:29 | -16.53764 | -46.40818 | 5597 ft | 87 kts | 62° |
| 2026-04-13 20:30 | -16.53515 | -46.40294 | 5807 ft | 77 kts | 63° |
| 2026-04-13 20:30 | -16.53295 | -46.39833 | 5940 ft | 76 kts | 63° |
| 2026-04-13 20:30 | -16.53076 | -46.39315 | 6026 ft | 81 kts | 72° |
| 2026-04-13 20:30 | -16.52957 | -46.38807 | 6148 ft | 81 kts | 77° |
| 2026-04-13 20:31 | -16.52878 | -46.38134 | 6115 ft | 102 kts | 89° |
| 2026-04-13 20:31 | -16.52935 | -46.37353 | 6144 ft | 114 kts | 97° |
| 2026-04-13 20:31 | -16.53018 | -46.36568 | 6404 ft | 103 kts | 93° |
| 2026-04-13 20:31 | -16.52996 | -46.35799 | 6524 ft | 106 kts | 80° |
| 2026-04-13 20:32 | -16.52747 | -46.35188 | 6846 ft | 89 kts | 58° |
| 2026-04-13 20:32 | -16.52331 | -46.34628 | 6890 ft | 103 kts | 56° |
| 2026-04-13 20:32 | -16.51901 | -46.33984 | 6989 ft | 104 kts | 53° |
| 2026-04-13 20:32 | -16.51472 | -46.33491 | 7215 ft | 100 kts | 46° |
| 2026-04-13 20:33 | -16.51024 | -46.32851 | 7205 ft | 118 kts | 65° |
| 2026-04-13 20:33 | -16.50627 | -46.32121 | 7381 ft | 113 kts | 61° |
| 2026-04-13 20:33 | -16.50218 | -46.31397 | 7444 ft | 121 kts | 62° |
| 2026-04-13 20:33 | -16.49946 | -46.30883 | 7570 ft | 117 kts | 64° |